Impacts TAF Board INFO
FOR SITUATIONAL AWARENESS. NOT TO BE USED FOR FLIGHT PLANNING PURPOSES.
IDs:

KDEN - Denver Intl, CO, US

Issued at 1122 UTC 21 May 2018
Updated at 1312 UTC 21 May 2018
Potential Impact None Slight Moderate High
Time<<22/14Z 22/15Z 22/16Z 22/17Z 22/18Z 22/19Z 22/20Z 22/21Z 22/22Z 22/23Z 23/00Z 23/01Z 23/02Z
Type PRVL PRVL PRVL PRVL
VIS >6 >6 >6 >6
CIG -- -- -- --
Cover SCT SCT SCT SCT
FltCat VFR VFR VFR VFR
WX -- -- -- --
WDir 200 200 200 200
WSpd 12 12 12 12
WGst -- -- -- --

Raw TAF
KDEN 211122Z 2112/2218 25006KT 1SM BR VV003
  TEMPO 2112/2113 1/4SM FG VV001
  FM211300 24006KT P6SM VCFG FEW001 BKN220
  FM211500 VRB05KT P6SM FEW001 SCT220
  FM211900 03006KT P6SM FEW120 SCT220
  FM212300 33007KT P6SM SCT100 BKN220
  FM220300 23012KT P6SM FEW120 SCT220
  FM220600 20012KT P6SM FEW120 SCT220


METAR Board
Radar Display
Forecast Discussion

FOR SITUATIONAL AWARENESS. NOT TO BE USED FOR FLIGHT PLANNING PURPOSES.